createdAt,value
2018-11-03T00:00:52.967Z,98975.41
2018-11-03T00:03:33.590Z,98979.34
2018-11-03T00:06:02.101Z,98982.37
2018-11-03T00:08:30.659Z,98974.73
2018-11-03T00:10:59.229Z,98968.52
2018-11-03T00:13:27.758Z,98966.06
2018-11-03T00:15:56.250Z,98965.47
2018-11-03T00:18:24.781Z,98957.92
2018-11-03T00:20:53.270Z,98954.09
2018-11-03T00:23:21.845Z,98947.41
2018-11-03T00:25:50.320Z,98951.30
2018-11-03T00:28:18.833Z,98942.12
2018-11-03T00:30:47.365Z,98942.52
2018-11-03T00:33:15.876Z,98943.31
2018-11-03T00:35:44.372Z,98948.84
2018-11-03T00:38:15.654Z,98940.89
2018-11-03T00:40:44.770Z,98936.30
2018-11-03T00:43:15.849Z,98934.41
2018-11-03T00:45:47.583Z,98931.77
2018-11-03T00:48:16.059Z,98928.81
2018-11-03T00:50:44.581Z,98928.61
2018-11-03T00:53:13.065Z,98914.38
2018-11-03T00:55:41.569Z,98916.23
2018-11-03T00:58:16.086Z,98914.86
2018-11-03T01:00:44.925Z,98919.69
2018-11-03T01:03:13.383Z,98923.69
2018-11-03T01:05:41.895Z,98926.27
2018-11-03T01:08:10.445Z,98934.83
2018-11-03T01:10:38.967Z,98933.00
2018-11-03T01:13:07.460Z,98934.69
2018-11-03T01:15:35.982Z,98936.66
2018-11-03T01:18:04.474Z,98940.89
2018-11-03T01:20:32.957Z,98935.37
2018-11-03T01:23:04.688Z,98931.23
2018-11-03T01:25:35.605Z,98942.70
2018-11-03T01:28:04.276Z,98942.47
2018-11-03T01:30:32.782Z,98933.78
2018-11-03T01:33:01.382Z,98934.63
2018-11-03T01:35:29.813Z,98932.97
2018-11-03T01:37:58.297Z,98938.12
2018-11-03T01:40:26.786Z,98938.42
2018-11-03T01:42:55.270Z,98935.95
2018-11-03T01:45:23.809Z,98935.38
2018-11-03T01:47:52.311Z,98935.06
2018-11-03T01:50:20.867Z,98938.47
2018-11-03T01:52:49.391Z,98939.30
2018-11-03T01:55:18.463Z,98940.17
2018-11-03T01:57:46.994Z,98943.16
2018-11-03T02:00:18.541Z,98935.11
2018-11-03T02:02:50.707Z,98928.91
2018-11-03T02:05:19.359Z,98923.55
2018-11-03T02:11:13.688Z,98928.88
2018-11-03T02:14:15.920Z,98937.83
2018-11-03T02:17:00.891Z,98937.53
2018-11-03T02:19:30.662Z,98925.42
2018-11-03T02:21:59.145Z,98929.49
2018-11-03T02:24:28.007Z,98938.44
2018-11-03T02:26:56.941Z,98930.86
2018-11-03T02:29:31.348Z,98938.05
2018-11-03T02:31:59.995Z,98936.03
2018-11-03T02:34:28.531Z,98937.06
2018-11-03T02:36:57.040Z,98939.22
2018-11-03T02:39:28.626Z,98936.73
2018-11-03T02:42:01.848Z,98942.42
2018-11-03T02:44:33.761Z,98955.87
2018-11-03T02:47:05.357Z,98961.62
2018-11-03T02:49:39.891Z,98963.75
2018-11-03T02:52:12.626Z,98962.42
2018-11-03T02:54:41.269Z,98955.23
2018-11-03T02:57:09.748Z,98959.96
2018-11-03T02:59:38.288Z,98957.25
2018-11-03T03:02:06.820Z,98957.25
2018-11-03T03:04:38.938Z,98958.44
2018-11-03T03:07:10.733Z,98954.69
2018-11-03T03:09:42.334Z,98952.67
2018-11-03T03:12:17.294Z,98945.70
2018-11-03T03:14:50.823Z,98955.31
2018-11-03T03:17:23.813Z,98961.71
2018-11-03T03:19:56.287Z,98965.27
2018-11-03T03:22:28.329Z,98970.88
2018-11-03T03:24:59.839Z,98970.84
2018-11-03T03:30:05.182Z,98975.15
2018-11-03T03:32:33.653Z,98978.16
2018-11-03T03:35:02.157Z,98983.23
2018-11-03T03:37:33.899Z,98985.00
2018-11-03T03:40:02.678Z,98974.42
2018-11-03T03:42:31.191Z,98977.36
2018-11-03T03:44:59.744Z,98972.47
2018-11-03T03:47:28.204Z,98975.27
2018-11-03T03:49:56.762Z,98968.36
2018-11-03T03:52:25.286Z,98967.62
2018-11-03T03:54:53.822Z,98967.03
2018-11-03T03:57:22.325Z,98967.03
2018-11-03T03:59:50.842Z,98962.41
2018-11-03T04:02:19.358Z,98964.72
2018-11-03T04:04:47.826Z,98971.86
2018-11-03T04:07:16.314Z,98977.05
2018-11-03T04:09:44.822Z,98975.36
2018-11-03T04:12:13.342Z,98969.95
2018-11-03T04:14:41.820Z,98965.02
2018-11-03T04:20:41.443Z,98963.19
2018-11-03T04:23:10.239Z,98959.56
2018-11-03T04:25:44.048Z,98959.40
2018-11-03T04:28:14.699Z,98961.78
2018-11-03T04:30:44.404Z,98963.39
2018-11-03T04:33:16.470Z,98958.77
2018-11-03T04:39:30.026Z,98966.55
2018-11-03T04:42:29.348Z,98972.26
2018-11-03T04:44:59.352Z,98967.94
2018-11-03T04:47:38.893Z,98974.34
2018-11-03T04:50:13.907Z,98980.84
2018-11-03T04:52:42.408Z,98977.74
2018-11-03T04:55:11.100Z,98977.30
2018-11-03T04:57:39.489Z,98976.98
2018-11-03T05:00:11.772Z,98975.80
2018-11-03T05:02:42.358Z,98970.28
2018-11-03T05:05:13.907Z,98974.38
2018-11-03T05:07:45.371Z,98973.68
2018-11-03T05:10:15.805Z,98972.55
2018-11-03T05:12:47.743Z,98976.28
2018-11-03T05:15:18.692Z,98979.19
2018-11-03T05:17:50.367Z,98977.16
2018-11-03T05:20:23.195Z,98983.11
2018-11-03T05:22:51.668Z,98984.31
2018-11-03T05:25:27.635Z,98987.47
2018-11-03T05:27:56.552Z,98993.62
2018-11-03T05:30:28.773Z,98998.56
2018-11-03T05:32:57.508Z,99005.85
2018-11-03T05:35:26.018Z,99012.05
2018-11-03T05:37:54.575Z,99007.05
2018-11-03T05:40:23.078Z,99006.16
2018-11-03T05:42:51.561Z,98999.70
2018-11-03T05:45:20.072Z,98995.96
2018-11-03T05:47:48.565Z,98994.30
2018-11-03T05:50:17.074Z,98997.78
2018-11-03T05:52:45.547Z,99009.50
2018-11-03T05:55:14.035Z,99009.16
2018-11-03T05:57:42.485Z,99010.73
2018-11-03T06:00:11.079Z,99012.02
2018-11-03T06:02:39.581Z,99008.11
2018-11-03T06:05:08.077Z,99018.67
2018-11-03T06:07:36.569Z,99005.80
2018-11-03T06:10:06.053Z,99011.17
2018-11-03T06:12:34.554Z,99013.78
2018-11-03T06:15:03.030Z,99021.42
2018-11-03T06:17:31.568Z,99021.75
2018-11-03T06:20:00.107Z,99028.59
2018-11-03T06:22:28.654Z,99023.33
2018-11-03T06:24:57.170Z,99033.82
2018-11-03T06:27:25.688Z,99037.55
2018-11-03T06:29:54.200Z,99034.24
2018-11-03T06:32:22.711Z,99026.70
2018-11-03T06:34:51.190Z,99033.69
2018-11-03T06:37:19.770Z,99027.53
2018-11-03T06:39:48.283Z,99034.06
2018-11-03T06:42:16.795Z,99038.89
2018-11-03T06:44:45.262Z,99044.69
2018-11-03T06:47:13.833Z,99048.08
2018-11-03T06:49:42.295Z,99055.87
2018-11-03T06:52:10.880Z,99067.67
2018-11-03T06:54:39.371Z,99063.09
2018-11-03T06:57:07.903Z,99070.58
2018-11-03T06:59:36.393Z,99068.36
2018-11-03T07:02:04.976Z,99078.34
2018-11-03T07:04:33.472Z,99081.53
2018-11-03T07:07:01.990Z,99085.72
2018-11-03T07:09:38.597Z,99088.73
2018-11-03T07:12:07.242Z,99085.97
2018-11-03T07:14:35.737Z,99090.66
2018-11-03T07:17:04.250Z,99091.86
2018-11-03T07:19:32.772Z,99094.47
2018-11-03T07:22:03.661Z,99091.71
2018-11-03T07:24:32.298Z,99096.13
2018-11-03T07:27:00.823Z,99095.64
2018-11-03T07:29:29.436Z,99099.02
2018-11-03T07:31:57.913Z,99104.66
2018-11-03T07:34:28.826Z,99102.89
2018-11-03T07:36:57.535Z,99101.86
2018-11-03T07:39:26.082Z,99102.92
2018-11-03T07:41:54.629Z,99102.73
2018-11-03T07:44:23.153Z,99101.99
2018-11-03T07:46:51.665Z,99106.59
2018-11-03T07:49:20.219Z,99097.09
2018-11-03T07:51:52.490Z,99098.07
2018-11-03T07:54:23.870Z,99098.16
2018-11-03T07:56:56.001Z,99094.66
2018-11-03T07:59:29.024Z,99093.60
2018-11-03T08:02:00.447Z,99089.87
2018-11-03T08:04:41.571Z,99090.82
2018-11-03T08:07:10.488Z,99084.09
2018-11-03T08:09:38.949Z,99086.09
2018-11-03T08:12:07.471Z,99095.03
2018-11-03T08:14:35.935Z,99089.06
2018-11-03T08:17:15.851Z,99085.86
2018-11-03T08:19:44.662Z,99072.01
2018-11-03T08:22:13.197Z,99068.72
2018-11-03T08:24:41.674Z,99071.03
2018-11-03T08:27:10.243Z,99071.44
2018-11-03T08:29:40.551Z,99073.11
2018-11-03T08:32:09.148Z,99076.02
2018-11-03T08:34:38.230Z,99064.37
2018-11-03T08:37:08.760Z,99069.61
2018-11-03T08:39:42.421Z,99074.80
2018-11-03T08:42:10.907Z,99079.16
2018-11-03T08:44:43.235Z,99074.44
2018-11-03T08:47:15.486Z,99075.14
2018-11-03T08:49:44.241Z,99076.80
2018-11-03T08:52:12.777Z,99077.72
2018-11-03T08:54:41.303Z,99069.89
2018-11-03T08:57:12.484Z,99061.56
2018-11-03T08:59:41.293Z,99063.34
2018-11-03T09:02:09.747Z,99062.31
2018-11-03T09:04:38.287Z,99062.25
2018-11-03T09:07:10.941Z,99066.33
2018-11-03T09:09:41.508Z,99065.36
2018-11-03T09:12:12.264Z,99068.44
2018-11-03T09:14:40.920Z,99064.59
2018-11-03T09:17:09.587Z,99067.78
2018-11-03T09:19:38.071Z,99066.05
2018-11-03T09:22:06.668Z,99063.88
2018-11-03T09:24:35.232Z,99065.28
2018-11-03T09:27:07.168Z,99066.52
2018-11-03T09:29:35.662Z,99060.02
2018-11-03T09:32:04.358Z,99057.16
2018-11-03T09:34:32.862Z,99069.16
2018-11-03T09:37:01.341Z,99059.85
2018-11-03T09:39:29.880Z,99064.09
2018-11-03T09:42:01.321Z,99061.72
2018-11-03T09:44:30.053Z,99061.51
2018-11-03T09:46:58.586Z,99059.00
2018-11-03T09:49:27.086Z,99061.51
2018-11-03T09:51:55.662Z,99059.27
2018-11-03T09:54:24.144Z,99058.84
2018-11-03T09:56:52.667Z,99052.97
2018-11-03T09:59:21.153Z,99064.53
2018-11-03T10:01:49.692Z,99058.83
2018-11-03T10:04:18.238Z,99058.70
2018-11-03T10:06:46.772Z,99050.85
2018-11-03T10:09:18.086Z,99048.18
2018-11-03T10:11:50.582Z,99052.91
2018-11-03T10:14:19.425Z,99049.11
2018-11-03T10:16:47.957Z,99047.32
2018-11-03T10:19:16.468Z,99050.08
2018-11-03T10:21:45.002Z,99046.75
2018-11-03T10:24:13.522Z,99035.36
2018-11-03T10:26:42.006Z,99038.89
2018-11-03T10:29:10.531Z,99030.18
2018-11-03T10:31:39.026Z,99028.62
2018-11-03T10:34:09.858Z,99029.19
2018-11-03T10:36:38.610Z,99022.02
2018-11-03T10:39:13.459Z,99021.83
2018-11-03T10:41:44.501Z,99027.47
2018-11-03T10:44:13.229Z,99025.48
2018-11-03T10:46:41.731Z,99028.11
2018-11-03T10:49:14.198Z,99025.43
2018-11-03T10:51:44.771Z,99023.17
2018-11-03T10:54:13.521Z,99025.28
2018-11-03T10:56:45.684Z,99028.11
2018-11-03T10:59:17.295Z,99028.53
2018-11-03T11:01:51.607Z,99032.11
2018-11-03T11:04:26.011Z,99028.70
2018-11-03T11:07:02.724Z,99036.73
2018-11-03T11:09:37.895Z,99031.73
2018-11-03T11:12:16.525Z,99029.09
2018-11-03T11:14:45.247Z,99028.34
2018-11-03T11:17:13.798Z,99025.27
2018-11-03T11:19:47.528Z,99027.20
2018-11-03T11:22:16.221Z,99019.89
2018-11-03T11:24:44.776Z,99015.03
2018-11-03T11:27:13.321Z,99009.05
2018-11-03T11:29:44.525Z,99005.66
2018-11-03T11:32:15.566Z,99000.80
2018-11-03T11:34:59.181Z,98998.06
2018-11-03T11:37:29.050Z,98994.39
2018-11-03T11:39:57.600Z,98998.89
2018-11-03T11:42:30.055Z,98995.10
2018-11-03T11:45:01.896Z,98993.05
2018-11-03T11:47:33.052Z,98990.01
2018-11-03T11:50:04.706Z,98987.41
2018-11-03T11:52:50.033Z,98990.69
2018-11-03T11:55:18.940Z,98989.60
2018-11-03T11:57:47.616Z,98984.88
2018-11-03T12:00:16.169Z,98981.77
2018-11-03T12:02:44.678Z,98987.16
2018-11-03T12:05:13.258Z,98982.52
2018-11-03T12:07:41.759Z,98980.89
2018-11-03T12:10:10.423Z,98973.58
2018-11-03T12:12:40.898Z,98973.58
2018-11-03T12:15:12.347Z,98974.78
2018-11-03T12:17:41.066Z,98970.91
2018-11-03T12:20:09.975Z,98967.30
2018-11-03T12:22:39.230Z,98964.69
2018-11-03T12:25:09.269Z,98952.67
2018-11-03T12:27:37.848Z,98952.38
2018-11-03T12:30:08.411Z,98948.36
2018-11-03T12:32:36.954Z,98954.84
2018-11-03T12:35:07.671Z,98954.16
2018-11-03T12:37:37.013Z,98949.44
2018-11-03T12:40:07.018Z,98948.16
2018-11-03T12:42:35.555Z,98937.70
2018-11-03T12:45:05.787Z,98945.03
2018-11-03T12:47:34.416Z,98930.23
2018-11-03T12:50:05.718Z,98925.27
2018-11-03T12:52:34.403Z,98925.83
2018-11-03T12:55:02.971Z,98920.23
2018-11-03T12:57:31.540Z,98919.00
2018-11-03T13:00:07.729Z,98933.27
2018-11-03T13:02:36.384Z,98920.24
2018-11-03T13:05:05.491Z,98925.21
2018-11-03T13:07:33.920Z,98932.36
2018-11-03T13:10:02.556Z,98928.47
2018-11-03T13:12:30.986Z,98927.95
2018-11-03T13:14:59.507Z,98925.39
2018-11-03T13:17:27.996Z,98918.80
2018-11-03T13:19:56.529Z,98918.69
2018-11-03T13:22:25.088Z,98919.23
2018-11-03T13:25:13.836Z,98924.10
2018-11-03T13:27:42.930Z,98922.66
2018-11-03T13:30:13.482Z,98930.22
2018-11-03T13:32:42.005Z,98929.16
2018-11-03T13:35:11.837Z,98926.45
2018-11-03T13:37:40.758Z,98929.45
2018-11-03T13:40:10.761Z,98920.48
2018-11-03T13:42:39.341Z,98924.50
2018-11-03T13:45:08.598Z,98926.06
2018-11-03T13:47:38.130Z,98926.44
2018-11-03T13:50:14.264Z,98916.63
2018-11-03T13:52:44.357Z,98919.96
2018-11-03T13:55:12.983Z,98918.48
2018-11-03T13:57:42.679Z,98922.30
2018-11-03T14:00:19.344Z,98913.95
2018-11-03T14:03:19.036Z,98905.41
2018-11-03T14:05:48.225Z,98913.72
2018-11-03T14:08:22.995Z,98911.72
2018-11-03T14:10:52.635Z,98904.73
2018-11-03T14:13:23.746Z,98914.98
2018-11-03T14:15:53.778Z,98916.32
2018-11-03T14:18:24.527Z,98917.78
2018-11-03T14:20:54.107Z,98915.89
2018-11-03T14:23:23.766Z,98912.14
2018-11-03T14:25:53.037Z,98910.62
2018-11-03T14:28:21.699Z,98900.90
2018-11-03T14:30:51.126Z,98899.04
2018-11-03T14:33:22.960Z,98894.69
2018-11-03T14:35:58.571Z,98885.63
2018-11-03T14:38:50.884Z,98888.24
2018-11-03T14:41:39.864Z,98884.07
2018-11-03T14:44:28.359Z,98880.96
2018-11-03T14:46:58.747Z,98888.35
2018-11-03T14:50:05.769Z,98872.77
2018-11-03T14:52:44.495Z,98882.21
2018-11-03T14:55:16.001Z,98886.59
2018-11-03T14:57:47.339Z,98885.45
2018-11-03T15:00:18.022Z,98883.06
2018-11-03T15:02:48.269Z,98871.61
2018-11-03T15:05:19.110Z,98871.17
2018-11-03T15:07:58.064Z,98884.48
2018-11-03T15:11:04.091Z,98876.56
2018-11-03T15:13:40.734Z,98879.25
2018-11-03T15:16:12.227Z,98874.39
2018-11-03T15:18:42.438Z,98872.77
2018-11-03T15:21:14.092Z,98870.00
2018-11-03T15:23:42.770Z,98870.00
2018-11-03T15:26:11.351Z,98865.98
2018-11-03T15:28:39.855Z,98863.02
2018-11-03T15:31:08.372Z,98866.02
2018-11-03T15:33:36.886Z,98867.78
2018-11-03T15:36:07.945Z,98860.52
2018-11-03T15:38:36.575Z,98871.02
2018-11-03T15:41:08.218Z,98867.73
2018-11-03T15:43:37.052Z,98865.59
2018-11-03T15:46:06.141Z,98857.61
2018-11-03T15:48:34.710Z,98855.61
2018-11-03T15:51:03.263Z,98852.83
2018-11-03T15:53:31.810Z,98851.06
2018-11-03T15:56:00.396Z,98845.92
2018-11-03T15:58:28.959Z,98847.16
2018-11-03T16:00:57.498Z,98851.27
2018-11-03T16:03:27.778Z,98848.66
2018-11-03T16:06:03.024Z,98844.65
2018-11-03T16:08:49.629Z,98849.89
2018-11-03T16:11:31.214Z,98850.56
2018-11-03T16:14:12.712Z,98840.18
2018-11-03T16:16:56.335Z,98842.48
2018-11-03T16:19:34.005Z,98842.16
2018-11-03T16:22:06.404Z,98842.61
2018-11-03T16:24:40.518Z,98843.59
2018-11-03T16:27:09.298Z,98842.92
2018-11-03T16:29:37.835Z,98853.17
2018-11-03T16:32:07.379Z,98854.57
2018-11-03T16:34:44.215Z,98846.06
2018-11-03T16:37:12.743Z,98848.45
2018-11-03T16:39:41.403Z,98850.30
2018-11-03T16:42:10.545Z,98852.02
2018-11-03T16:44:50.576Z,98850.47
2018-11-03T16:47:19.150Z,98856.09
2018-11-03T16:49:47.619Z,98854.48
2018-11-03T16:52:17.363Z,98857.77
2018-11-03T16:54:45.878Z,98854.37
2018-11-03T16:57:14.394Z,98863.34
2018-11-03T16:59:42.881Z,98865.11
2018-11-03T17:02:11.377Z,98867.23
2018-11-03T17:04:45.567Z,98864.23
2018-11-03T17:07:14.337Z,98872.48
2018-11-03T17:09:42.835Z,98870.31
2018-11-03T17:12:11.454Z,98877.39
2018-11-03T17:14:40.012Z,98876.88
2018-11-03T17:17:08.558Z,98880.59
2018-11-03T17:19:37.088Z,98885.61
2018-11-03T17:22:05.781Z,98873.75
2018-11-03T17:24:34.317Z,98878.66
2018-11-03T17:27:02.837Z,98881.77
2018-11-03T17:29:31.379Z,98876.83
2018-11-03T17:31:59.921Z,98875.64
2018-11-03T17:34:28.452Z,98870.80
2018-11-03T17:36:57.281Z,98879.87
2018-11-03T17:39:25.798Z,98876.25
2018-11-03T17:41:54.323Z,98881.06
2018-11-03T17:44:22.823Z,98868.52
2018-11-03T17:46:51.342Z,98875.86
2018-11-03T17:49:19.884Z,98875.03
2018-11-03T17:51:48.735Z,98869.56
2018-11-03T17:54:17.611Z,98876.80
2018-11-03T17:56:46.182Z,98878.66
2018-11-03T17:59:14.690Z,98877.92
2018-11-03T18:01:43.219Z,98873.14
2018-11-03T18:04:11.768Z,98870.69
2018-11-03T18:06:40.327Z,98859.97
2018-11-03T18:09:09.556Z,98861.67
2018-11-03T18:11:38.103Z,98859.48
2018-11-03T18:14:06.672Z,98862.95
2018-11-03T18:16:35.289Z,98858.16
2018-11-03T18:19:03.831Z,98852.53
2018-11-03T18:21:36.277Z,98853.46
2018-11-03T18:24:05.014Z,98847.88
2018-11-03T18:26:33.624Z,98858.18
2018-11-03T18:29:02.148Z,98846.95
2018-11-03T18:31:30.689Z,98848.61
2018-11-03T18:33:59.243Z,98846.11
2018-11-03T18:36:27.765Z,98842.83
2018-11-03T18:38:56.249Z,98847.17
2018-11-03T18:41:24.835Z,98840.48
2018-11-03T18:43:53.355Z,98839.87
2018-11-03T18:46:21.959Z,98846.33
2018-11-03T18:48:50.462Z,98838.21
2018-11-03T18:51:19.012Z,98850.63
2018-11-03T18:53:48.376Z,98845.37
2018-11-03T18:56:17.862Z,98845.55
2018-11-03T18:58:47.061Z,98849.23
2018-11-03T19:01:18.929Z,98850.31
2018-11-03T19:03:47.626Z,98840.35
2018-11-03T19:06:16.179Z,98845.88
2018-11-03T19:08:44.788Z,98843.88
2018-11-03T19:11:13.339Z,98844.75
2018-11-03T19:13:41.858Z,98844.32
2018-11-03T19:16:10.460Z,98834.46
2018-11-03T19:18:44.033Z,98829.84
2018-11-03T19:21:14.345Z,98826.77
2018-11-03T19:23:46.328Z,98831.83
2018-11-03T19:26:15.131Z,98826.23
2018-11-03T19:28:43.610Z,98822.33
2018-11-03T19:31:12.162Z,98819.59
2018-11-03T19:33:40.777Z,98823.03
2018-11-03T19:36:09.334Z,98824.18
2018-11-03T19:38:37.868Z,98824.04
2018-11-03T19:41:06.464Z,98813.43
2018-11-03T19:43:35.106Z,98817.30
2018-11-03T19:46:03.781Z,98815.67
2018-11-03T19:48:32.296Z,98806.42
2018-11-03T19:51:00.795Z,98803.43
2018-11-03T19:53:29.601Z,98807.00
2018-11-03T19:55:58.142Z,98802.49
2018-11-03T19:58:27.697Z,98802.53
2018-11-03T20:00:57.526Z,98801.98
2018-11-03T20:03:26.134Z,98799.20
2018-11-03T20:05:55.862Z,98800.72
2018-11-03T20:08:24.404Z,98799.84
2018-11-03T20:10:52.977Z,98798.77
2018-11-03T20:13:21.531Z,98802.27
2018-11-03T20:15:50.052Z,98805.27
2018-11-03T20:18:22.394Z,98800.22
2018-11-03T20:20:55.095Z,98794.98
2018-11-03T20:23:23.846Z,98791.05
2018-11-03T20:25:52.358Z,98785.59
2018-11-03T20:28:20.914Z,98786.64
2018-11-03T20:30:49.798Z,98795.38
2018-11-03T20:33:19.220Z,98785.41
2018-11-03T20:35:50.570Z,98782.73
2018-11-03T20:38:19.228Z,98785.09
2018-11-03T20:40:47.717Z,98781.91
2018-11-03T20:43:16.795Z,98774.68
2018-11-03T20:45:45.340Z,98773.78
2018-11-03T20:48:13.952Z,98767.94
2018-11-03T20:50:42.475Z,98766.49
2018-11-03T20:53:11.044Z,98774.77
2018-11-03T20:55:39.562Z,98775.78
2018-11-03T20:58:08.108Z,98758.30
2018-11-03T21:00:36.593Z,98759.20
2018-11-03T21:03:05.187Z,98758.91
2018-11-03T21:05:33.684Z,98753.18
2018-11-03T21:08:02.595Z,98756.58
2018-11-03T21:10:31.111Z,98755.23
2018-11-03T21:12:59.628Z,98752.45
2018-11-03T21:15:28.173Z,98745.02
2018-11-03T21:17:56.698Z,98754.69
2018-11-03T21:20:26.050Z,98748.02
2018-11-03T21:22:54.662Z,98759.09
2018-11-03T21:25:23.079Z,98755.88
2018-11-03T21:27:51.747Z,98747.47
2018-11-03T21:30:20.412Z,98743.56
2018-11-03T21:32:48.933Z,98739.50
2018-11-03T21:35:17.380Z,98741.63
2018-11-03T21:37:45.887Z,98735.65
2018-11-03T21:40:14.395Z,98737.17
2018-11-03T21:42:42.906Z,98738.71
2018-11-03T21:45:11.480Z,98739.44
2018-11-03T21:47:40.936Z,98728.66
2018-11-03T21:50:10.140Z,98736.55
2018-11-03T21:52:38.722Z,98736.50
2018-11-03T21:55:07.831Z,98738.73
2018-11-03T21:57:36.560Z,98743.56
2018-11-03T22:00:06.061Z,98737.11
2018-11-03T22:02:34.556Z,98732.59
2018-11-03T22:05:03.075Z,98723.31
2018-11-03T22:07:31.575Z,98730.94
2018-11-03T22:10:00.220Z,98727.70
2018-11-03T22:12:28.706Z,98723.92
2018-11-03T22:14:57.245Z,98727.70
2018-11-03T22:17:25.788Z,98724.36
2018-11-03T22:19:54.328Z,98713.11
2018-11-03T22:22:22.814Z,98712.58
2018-11-03T22:24:51.874Z,98705.87
2018-11-03T22:27:20.364Z,98702.05
2018-11-03T22:29:48.868Z,98695.43
2018-11-03T22:32:17.435Z,98692.55
2018-11-03T22:34:45.976Z,98702.43
2018-11-03T22:37:14.515Z,98702.05
2018-11-03T22:39:43.029Z,98699.88
2018-11-03T22:42:11.565Z,98693.30
2018-11-03T22:44:40.642Z,98700.66
2018-11-03T22:47:09.165Z,98692.08
2018-11-03T22:49:37.711Z,98691.86
2018-11-03T22:52:07.381Z,98693.80
2018-11-03T22:54:36.753Z,98695.48
2018-11-03T22:57:05.401Z,98686.64
2018-11-03T22:59:33.903Z,98684.70
2018-11-03T23:02:02.463Z,98682.51
2018-11-03T23:04:31.035Z,98681.39
2018-11-03T23:06:59.599Z,98675.16
2018-11-03T23:09:28.121Z,98673.44
2018-11-03T23:11:56.654Z,98669.26
2018-11-03T23:14:25.176Z,98659.30
2018-11-03T23:16:53.710Z,98653.81
2018-11-03T23:19:22.255Z,98655.31
2018-11-03T23:21:50.822Z,98646.72
2018-11-03T23:24:19.313Z,98643.56
2018-11-03T23:26:47.830Z,98639.78
2018-11-03T23:29:16.310Z,98632.59
2018-11-03T23:31:49.584Z,98625.95
2018-11-03T23:34:19.696Z,98626.33
2018-11-03T23:36:48.367Z,98626.48
2018-11-03T23:39:16.870Z,98623.81
2018-11-03T23:41:45.387Z,98619.00
2018-11-03T23:44:13.886Z,98616.23
2018-11-03T23:46:42.948Z,98616.50
2018-11-03T23:49:11.489Z,98611.45
2018-11-03T23:51:40.050Z,98611.38
2018-11-03T23:54:08.574Z,98612.72
2018-11-03T23:56:39.875Z,98609.22
2018-11-03T23:59:08.842Z,98619.45
